X  Chiuso Dati meteorologici dell'aviazione (METAR)     EHGG Eelde Airport
Temperatura
17°C Temperatura
15°C Punto di rugiada
88% Umidità



Vento
8 KM/O
5 MPH
2 M/S
4 KTS



270°
O
Condizioni attuali

Parzialmente nuvoloso Parzialmente nuvoloso
Pressione 1014.92 (hPa) - 29.97 (inHg)
Visibilità 6.2 (miglio) - 10 (km)
Aeroporto
Codice-Aeroporto EHGG

Posizione: Eelde Airport
Distanza: 47 (km)

Metar:
EHGG 270725Z AUTO 27004KT 240V310 9999 FEW027 17/15 Q1015 NOSIG

Ore: 27-06-2022 09:25 CEST